aviador You're here:

KJAN Decoded Metar

JACKSON in MS, USA
Report Time2017-07-24 20:18:00
UTC Time2017-07-24 20:49:19
Flight Rules mvfr MVFR
Wind190° at 10 kt
W.Decomp.*RWY 16: 8.7 kt HW 5.0 kt RCW
W.Rank190° ranks 9
Current wind is above 190° avg. (6.9)
Visibility9999 m
Phenomena:thunderstorm
Clouds:Scattered 015 Hf
Broken 021 Hf
Expected CloudBase > 1,200 ft AGL from Temp-Dew spread
Ceiling2,100 ft
Temp27°C (ISA +13)
Dew Point24°C (84% RH)
Heat Index30.1°C
QNH1016 hPa
Density Alt2,044 ft
Elevation299 ft
Report Wrong Elevation
Raw Report
KJAN 242018Z 19010KT 10SM TS SCT015 BKN021 27/24 A2999=

Extra information for KJAN:More info

Metar Taf Metar & Taf Last 4 Metars F.Rules Stats Wind Profile Meteogram Temp Stats Airport Information Weather charts Add Link Nearby VenuesMetar ALERT Operation Metar Decoded Social comments

AIRNAV info for KJAN